Terminal Aerodrome Forecast
Issued by NWS Omaha/Valley, NE

Home | Current Version | Previous Version | Text Only | Print | Product List | Glossary On
Versions: 1 2 3 4 5 6 7 8 9 10 11 12 13 14 15 16 17 18 19 20 21 22 23 24 25 26 27 28 29 30 31 32 33 34 35 36 37 38
000
FTUS43 KOAX 171512 AAB
TAFLNK
TAF AMD
KLNK 171512Z 1715/1812 VRB03KT P6SM BKN012
      TEMPO 1715/1716 5SM BR BKN005
     FM171700 11005KT P6SM SCT025
     FM171900 12006KT P6SM SCT030
     FM180200 09005KT P6SM SCT030 BKN120
     FM180800 10004KT 4SM BR BKN012=

USA.gov is the U.S. government's official web portal to all federal, state and local government web resources and services.